createdAt,value
2022-12-15T00:00:18.573Z,18.00
2022-12-15T00:03:04.185Z,17.65
2022-12-15T00:05:50.273Z,16.77
2022-12-15T00:08:36.445Z,24.02
2022-12-15T00:11:22.776Z,16.45
2022-12-15T00:14:08.376Z,17.08
2022-12-15T00:16:53.856Z,15.23
2022-12-15T00:19:39.222Z,16.15
2022-12-15T00:22:25.019Z,15.00
2022-12-15T00:25:10.376Z,13.30
2022-12-15T00:27:55.768Z,14.07
2022-12-15T00:30:41.226Z,19.58
2022-12-15T00:33:29.453Z,16.23
2022-12-15T00:36:17.696Z,26.55
2022-12-15T00:38:45.406Z,10.65
2022-12-15T00:41:17.091Z,11.13
2022-12-15T00:43:45.335Z,17.38
2022-12-15T00:46:31.422Z,10.45
2022-12-15T00:48:58.729Z,13.52
2022-12-15T00:51:44.790Z,10.80
2022-12-15T00:54:30.676Z,11.60
2022-12-15T00:57:16.127Z,11.02
2022-12-15T01:00:01.610Z,13.68
2022-12-15T01:02:47.334Z,9.60
2022-12-15T01:05:33.272Z,13.38
2022-12-15T01:08:19.287Z,8.88
2022-12-15T01:11:05.263Z,9.10
2022-12-15T01:13:51.132Z,12.05
2022-12-15T01:16:36.642Z,11.88
2022-12-15T01:19:22.409Z,10.68
2022-12-15T01:21:50.175Z,12.65
2022-12-15T01:24:17.282Z,11.25
2022-12-15T01:26:44.527Z,10.38
2022-12-15T01:29:11.677Z,7.80
2022-12-15T01:31:38.719Z,9.27
2022-12-15T01:34:05.815Z,12.48
2022-12-15T01:36:32.908Z,10.75
2022-12-15T01:39:00.729Z,12.02
2022-12-15T01:41:29.115Z,11.52
2022-12-15T01:44:14.321Z,10.32
2022-12-15T01:46:41.479Z,14.07
2022-12-15T01:49:16.735Z,13.98
2022-12-15T01:51:48.985Z,9.48
2022-12-15T01:54:21.338Z,11.00
2022-12-15T01:56:52.705Z,18.73
2022-12-15T01:59:25.109Z,10.07
2022-12-15T02:01:53.076Z,11.50
2022-12-15T02:04:22.830Z,10.85
2022-12-15T02:06:50.813Z,7.90
2022-12-15T02:09:19.144Z,9.98
2022-12-15T02:12:08.835Z,13.68
2022-12-15T02:14:44.976Z,12.25
2022-12-15T02:17:15.054Z,10.63
2022-12-15T02:19:57.381Z,8.95
2022-12-15T02:23:08.042Z,8.38
2022-12-15T02:25:40.519Z,10.00
2022-12-15T02:28:45.619Z,15.30
2022-12-15T02:31:42.417Z,10.35
2022-12-15T02:34:33.431Z,10.80
2022-12-15T02:37:15.862Z,7.60
2022-12-15T02:39:42.979Z,8.80
2022-12-15T02:42:11.336Z,8.90
2022-12-15T02:45:16.557Z,8.73
2022-12-15T02:47:46.612Z,8.40
2022-12-15T02:50:16.687Z,6.75
2022-12-15T02:53:02.598Z,9.98
2022-12-15T02:55:50.213Z,8.05
2022-12-15T02:58:28.486Z,7.30
2022-12-15T03:01:04.416Z,6.85
2022-12-15T03:03:34.604Z,13.48
2022-12-15T03:06:03.231Z,9.65
2022-12-15T03:08:30.203Z,8.30
2022-12-15T03:10:58.105Z,9.25
2022-12-15T03:13:25.641Z,8.70
2022-12-15T03:15:54.483Z,11.15
2022-12-15T03:18:21.756Z,5.20
2022-12-15T03:20:50.516Z,6.50
2022-12-15T03:23:17.687Z,6.88
2022-12-15T03:25:46.173Z,6.82
2022-12-15T03:28:17.408Z,11.85
2022-12-15T03:30:45.167Z,15.65
2022-12-15T03:33:17.620Z,6.07
2022-12-15T03:35:44.626Z,8.30
2022-12-15T03:38:11.591Z,9.25
2022-12-15T03:40:38.701Z,5.18
2022-12-15T03:43:05.691Z,6.70
2022-12-15T03:45:32.750Z,3.00
2022-12-15T03:47:59.888Z,4.90
2022-12-15T03:50:29.308Z,4.35
2022-12-15T03:53:01.064Z,4.22
2022-12-15T03:55:31.539Z,6.53
2022-12-15T03:57:59.369Z,7.80
2022-12-15T04:00:27.019Z,3.95
2022-12-15T04:02:54.424Z,2.70
2022-12-15T04:05:25.808Z,4.15
2022-12-15T04:07:54.731Z,5.30
2022-12-15T04:10:22.324Z,5.18
2022-12-15T04:12:49.687Z,8.68
2022-12-15T04:15:17.157Z,7.95
2022-12-15T04:17:44.562Z,7.18
2022-12-15T04:20:12.181Z,6.65
2022-12-15T04:22:40.335Z,7.10
2022-12-15T04:25:28.615Z,9.35
2022-12-15T04:28:14.673Z,11.60
2022-12-15T04:31:07.392Z,12.55
2022-12-15T04:33:54.178Z,14.07
2022-12-15T04:36:40.523Z,17.65
2022-12-15T04:39:25.961Z,18.70
2022-12-15T04:42:16.122Z,19.73
2022-12-15T04:45:02.212Z,24.15
2022-12-15T04:47:48.128Z,24.70
2022-12-15T04:50:33.552Z,29.55
2022-12-15T04:53:34.569Z,28.40
2022-12-15T04:56:20.939Z,32.00
2022-12-15T04:59:07.516Z,27.08
2022-12-15T05:01:54.063Z,27.27
2022-12-15T05:04:39.512Z,33.83
2022-12-15T05:07:24.970Z,30.48
2022-12-15T05:10:14.859Z,35.58
2022-12-15T05:13:01.836Z,36.95
2022-12-15T05:15:48.292Z,27.05
2022-12-15T05:18:33.755Z,26.23
2022-12-15T05:21:19.135Z,25.00
2022-12-15T05:24:04.437Z,30.48
2022-12-15T05:26:52.996Z,25.08
2022-12-15T05:29:39.930Z,27.65
2022-12-15T05:32:08.130Z,30.27
2022-12-15T05:34:36.367Z,34.15
2022-12-15T05:37:05.652Z,29.90
2022-12-15T05:39:33.070Z,27.58
2022-12-15T05:42:00.230Z,24.15
2022-12-15T05:44:28.513Z,27.25
2022-12-15T05:46:55.588Z,21.55
2022-12-15T05:49:23.393Z,23.70
2022-12-15T05:51:50.770Z,27.75
2022-12-15T05:54:20.182Z,27.48
2022-12-15T05:56:50.553Z,22.17
2022-12-15T05:59:19.305Z,25.15
2022-12-15T06:01:46.645Z,25.92
2022-12-15T06:04:13.918Z,26.27
2022-12-15T06:06:41.554Z,26.88
2022-12-15T06:09:08.683Z,22.63
2022-12-15T06:11:35.744Z,24.55
2022-12-15T06:14:02.872Z,24.33
2022-12-15T06:16:30.301Z,20.15
2022-12-15T06:19:00.550Z,22.92
2022-12-15T06:21:31.012Z,23.25
2022-12-15T06:23:58.241Z,20.00
2022-12-15T06:26:28.209Z,24.85
2022-12-15T06:28:57.579Z,25.45
2022-12-15T06:31:25.832Z,28.30
2022-12-15T06:33:59.256Z,25.02
2022-12-15T06:36:28.828Z,22.15
2022-12-15T06:38:59.472Z,27.17
2022-12-15T06:41:26.743Z,23.27
2022-12-15T06:43:57.877Z,20.90
2022-12-15T06:46:26.336Z,25.88
2022-12-15T06:48:53.633Z,24.85
2022-12-15T06:51:20.859Z,24.83
2022-12-15T06:53:54.135Z,24.98
2022-12-15T06:56:34.172Z,29.25
2022-12-15T06:59:06.266Z,26.15
2022-12-15T07:01:34.725Z,21.35
2022-12-15T07:04:05.358Z,27.55
2022-12-15T07:06:36.575Z,28.75
2022-12-15T07:09:05.395Z,29.95
2022-12-15T07:11:32.985Z,37.40
2022-12-15T07:13:59.940Z,28.48
2022-12-15T07:16:27.005Z,34.17
2022-12-15T07:18:54.005Z,44.53
2022-12-15T07:21:20.991Z,50.35
2022-12-15T07:23:56.817Z,37.47
2022-12-15T07:26:24.964Z,37.13
2022-12-15T07:28:53.751Z,31.73
2022-12-15T07:31:21.911Z,25.95
2022-12-15T07:33:49.256Z,21.27
2022-12-15T07:36:16.544Z,27.75
2022-12-15T07:38:49.991Z,27.05
2022-12-15T07:41:18.993Z,21.45
2022-12-15T07:43:48.166Z,25.73
2022-12-15T07:46:16.994Z,26.85
2022-12-15T07:48:44.292Z,28.70
2022-12-15T07:51:20.191Z,35.55
2022-12-15T07:53:49.818Z,38.42
2022-12-15T07:56:17.686Z,32.25
2022-12-15T07:58:45.051Z,29.45
2022-12-15T08:01:14.197Z,25.17
2022-12-15T08:03:41.818Z,35.78
2022-12-15T08:06:11.549Z,19.52
2022-12-15T08:08:38.885Z,30.38
2022-12-15T08:11:10.674Z,22.40
2022-12-15T08:14:02.109Z,34.25
2022-12-15T08:16:25.785Z,26.45
2022-12-15T08:18:53.071Z,29.27
2022-12-15T08:21:20.145Z,27.95
2022-12-15T08:23:47.813Z,34.42
2022-12-15T08:26:17.020Z,27.25
2022-12-15T08:28:44.983Z,26.65
2022-12-15T08:31:22.085Z,26.73
2022-12-15T08:33:49.922Z,20.88
2022-12-15T08:36:18.645Z,25.05
2022-12-15T08:38:46.648Z,20.38
2022-12-15T08:41:14.699Z,21.77
2022-12-15T08:43:48.228Z,27.50
2022-12-15T08:46:18.464Z,25.50
2022-12-15T08:48:45.909Z,26.27
2022-12-15T08:51:13.385Z,43.97
2022-12-15T08:53:42.271Z,30.55
2022-12-15T08:56:12.351Z,38.05
2022-12-15T08:58:40.268Z,35.22
2022-12-15T09:01:10.937Z,29.25
2022-12-15T09:03:38.403Z,40.20
2022-12-15T09:06:07.638Z,29.05
2022-12-15T09:08:35.554Z,34.78
2022-12-15T09:11:02.899Z,34.55
2022-12-15T09:13:30.450Z,27.45
2022-12-15T09:16:10.709Z,35.20
2022-12-15T09:18:38.306Z,34.40
2022-12-15T09:21:07.525Z,34.17
2022-12-15T09:23:36.615Z,37.70
2022-12-15T09:26:08.658Z,39.17
2022-12-15T09:28:37.133Z,45.67
2022-12-15T09:31:08.281Z,35.30
2022-12-15T09:33:36.049Z,41.72
2022-12-15T09:36:03.811Z,45.75
2022-12-15T09:38:31.453Z,52.33
2022-12-15T09:40:58.516Z,46.38
2022-12-15T09:43:37.945Z,54.60
2022-12-15T09:46:24.009Z,50.35
2022-12-15T09:48:52.976Z,51.83
2022-12-15T09:51:23.496Z,51.25
2022-12-15T09:53:55.845Z,48.95
2022-12-15T09:56:57.927Z,47.30
2022-12-15T09:59:46.620Z,48.05
2022-12-15T10:02:21.155Z,51.28
2022-12-15T10:05:09.657Z,57.17
2022-12-15T10:07:43.809Z,58.65
2022-12-15T10:10:39.911Z,52.15
2022-12-15T10:13:23.447Z,53.42
2022-12-15T10:15:58.323Z,56.47
2022-12-15T10:18:30.020Z,59.53
2022-12-15T10:21:00.584Z,62.15
2022-12-15T10:23:27.603Z,59.20
2022-12-15T10:26:19.222Z,53.58
2022-12-15T10:29:02.957Z,71.63
2022-12-15T10:32:00.456Z,77.32
2022-12-15T10:34:34.054Z,52.08
2022-12-15T10:37:01.576Z,51.10
2022-12-15T10:39:43.360Z,66.20
2022-12-15T10:42:23.402Z,47.83
2022-12-15T10:44:53.125Z,50.47
2022-12-15T10:47:34.006Z,49.75
2022-12-15T10:50:25.148Z,39.97
2022-12-15T10:52:52.500Z,41.33
2022-12-15T10:55:40.418Z,43.42
2022-12-15T10:58:22.356Z,43.65
2022-12-15T11:01:07.117Z,42.78
2022-12-15T11:03:39.753Z,40.55
2022-12-15T11:06:22.461Z,45.35
2022-12-15T11:08:53.092Z,44.50
2022-12-15T11:11:47.595Z,47.85
2022-12-15T11:14:23.504Z,49.63
2022-12-15T11:16:56.579Z,38.08
2022-12-15T11:19:48.090Z,40.70
2022-12-15T11:22:20.395Z,44.53
2022-12-15T11:24:56.894Z,44.58
2022-12-15T11:27:35.823Z,48.00
2022-12-15T11:30:22.227Z,42.55
2022-12-15T11:32:55.668Z,40.63
2022-12-15T11:35:28.909Z,43.97
2022-12-15T11:38:22.234Z,36.60
2022-12-15T11:40:51.786Z,41.25
2022-12-15T11:43:38.319Z,43.10
2022-12-15T11:46:11.318Z,39.55
2022-12-15T11:49:06.066Z,49.88
2022-12-15T11:51:49.392Z,44.33
2022-12-15T11:54:39.716Z,45.13
2022-12-15T11:57:21.831Z,37.03
2022-12-15T12:00:10.544Z,42.28
2022-12-15T12:02:47.482Z,34.38
2022-12-15T12:05:56.287Z,36.50
2022-12-15T12:08:44.750Z,40.90
2022-12-15T12:11:16.388Z,46.70
2022-12-15T12:14:05.338Z,49.45
2022-12-15T12:16:41.145Z,44.20
2022-12-15T12:19:29.029Z,50.53
2022-12-15T12:22:24.165Z,48.35
2022-12-15T12:25:06.650Z,43.28
2022-12-15T12:27:50.421Z,42.28
2022-12-15T12:30:23.219Z,51.67
2022-12-15T12:33:04.043Z,45.42
2022-12-15T12:35:52.329Z,42.92
2022-12-15T12:38:25.764Z,47.63
2022-12-15T12:41:04.879Z,57.45
2022-12-15T12:43:36.638Z,42.63
2022-12-15T12:46:13.968Z,46.88
2022-12-15T12:48:53.322Z,46.53
2022-12-15T12:51:31.081Z,41.80
2022-12-15T12:53:59.504Z,43.42
2022-12-15T12:56:45.599Z,45.70
2022-12-15T12:59:37.670Z,47.97
2022-12-15T13:02:25.689Z,49.85
2022-12-15T13:05:06.514Z,48.58
2022-12-15T13:07:40.786Z,42.83
2022-12-15T13:10:19.364Z,51.95
2022-12-15T13:12:53.316Z,42.65
2022-12-15T13:15:35.987Z,47.47
2022-12-15T13:18:19.558Z,41.75
2022-12-15T13:20:48.945Z,47.60
2022-12-15T13:23:23.961Z,43.53
2022-12-15T13:25:56.969Z,48.15
2022-12-15T13:28:27.212Z,41.50
2022-12-15T13:31:19.363Z,52.53
2022-12-15T13:33:49.479Z,45.97
2022-12-15T13:36:38.620Z,49.45
2022-12-15T13:39:12.406Z,45.22
2022-12-15T13:42:23.730Z,58.40
2022-12-15T13:45:05.485Z,55.40
2022-12-15T13:47:33.188Z,55.05
2022-12-15T13:50:14.596Z,54.33
2022-12-15T13:56:17.715Z,175.73
2022-12-15T14:01:51.344Z,62.75
2022-12-15T14:04:19.332Z,53.13
2022-12-15T14:06:58.200Z,54.25
2022-12-15T14:09:41.779Z,55.05
2022-12-15T14:12:15.136Z,64.88
2022-12-15T14:14:49.811Z,57.97
2022-12-15T14:17:19.401Z,53.63
2022-12-15T14:19:51.031Z,57.60
2022-12-15T14:22:28.064Z,49.97
2022-12-15T14:25:24.550Z,64.60
2022-12-15T14:27:51.816Z,53.40
2022-12-15T14:30:32.715Z,50.42
2022-12-15T14:33:08.205Z,59.60
2022-12-15T14:35:42.635Z,60.60
2022-12-15T14:38:46.039Z,59.85
2022-12-15T14:41:40.150Z,57.85
2022-12-15T14:44:36.366Z,49.83
2022-12-15T14:47:16.182Z,46.78
2022-12-15T14:49:45.703Z,54.53
2022-12-15T14:52:42.896Z,47.88
2022-12-15T14:55:30.948Z,47.25
2022-12-15T14:57:58.547Z,44.25
2022-12-15T15:00:27.877Z,41.10
2022-12-15T15:06:01.474Z,55.50
2022-12-15T15:09:02.598Z,30.98
2022-12-15T15:11:31.438Z,27.60
2022-12-15T15:14:08.096Z,32.22
2022-12-15T15:16:35.285Z,38.25
2022-12-15T15:19:03.170Z,40.75
2022-12-15T15:21:34.229Z,48.33
2022-12-15T15:24:17.220Z,48.03
2022-12-15T15:26:44.311Z,48.10
2022-12-15T15:29:50.251Z,43.00
2022-12-15T15:32:22.384Z,37.78
2022-12-15T15:34:49.842Z,42.45
2022-12-15T15:37:22.964Z,41.60
2022-12-15T15:39:55.300Z,43.28
2022-12-15T15:42:25.435Z,31.60
2022-12-15T15:44:57.965Z,37.05
2022-12-15T15:47:25.895Z,36.30
2022-12-15T15:49:55.032Z,31.10
2022-12-15T15:52:22.888Z,29.83
2022-12-15T15:54:50.471Z,30.63
2022-12-15T15:57:19.011Z,32.55
2022-12-15T15:59:47.066Z,33.08
2022-12-15T16:02:14.976Z,25.23
2022-12-15T16:04:43.162Z,29.20
2022-12-15T16:07:22.509Z,23.30
2022-12-15T16:09:49.872Z,25.17
2022-12-15T16:12:29.660Z,19.13
2022-12-15T16:14:57.033Z,19.60
2022-12-15T16:17:24.057Z,17.85
2022-12-15T16:19:51.038Z,15.48
2022-12-15T16:22:21.374Z,13.70
2022-12-15T16:24:48.670Z,17.42
2022-12-15T16:27:16.384Z,19.73
2022-12-15T16:29:44.432Z,10.73
2022-12-15T16:32:14.379Z,15.98
2022-12-15T16:34:44.331Z,19.73
2022-12-15T16:37:26.163Z,10.90
2022-12-15T16:39:53.657Z,10.93
2022-12-15T16:42:20.721Z,9.15
2022-12-15T16:44:47.658Z,16.05
2022-12-15T16:47:15.616Z,22.20
2022-12-15T16:49:43.693Z,24.55
2022-12-15T16:52:20.538Z,21.70
2022-12-15T16:54:52.376Z,17.77
2022-12-15T16:57:22.898Z,17.55
2022-12-15T16:59:50.545Z,18.17
2022-12-15T17:02:28.734Z,18.80
2022-12-15T17:04:57.234Z,16.65
2022-12-15T17:07:33.749Z,18.58
2022-12-15T17:10:01.207Z,24.85
2022-12-15T17:12:28.214Z,23.02
2022-12-15T17:14:55.225Z,32.78
2022-12-15T17:17:22.176Z,44.90
2022-12-15T17:20:28.432Z,74.78
2022-12-15T17:22:37.838Z,96.18
2022-12-15T17:25:05.320Z,116.07
2022-12-15T17:27:32.820Z,141.95
2022-12-15T17:30:00.883Z,78.30
2022-12-15T17:32:27.809Z,88.10
2022-12-15T17:34:54.857Z,72.13
2022-12-15T17:37:21.962Z,57.40
2022-12-15T17:39:51.430Z,55.65
2022-12-15T17:42:20.252Z,54.95
2022-12-15T17:44:48.213Z,48.42
2022-12-15T17:47:16.591Z,64.78
2022-12-15T17:49:44.282Z,79.93
2022-12-15T17:52:26.176Z,64.57
2022-12-15T17:54:53.563Z,64.93
2022-12-15T17:57:20.759Z,66.90
2022-12-15T17:59:48.099Z,57.97
2022-12-15T18:02:15.530Z,54.83
2022-12-15T18:04:43.142Z,52.75
2022-12-15T18:07:22.616Z,65.20
2022-12-15T18:09:51.521Z,64.00
2022-12-15T18:12:24.533Z,68.15
2022-12-15T18:14:52.666Z,76.43
2022-12-15T18:17:20.035Z,79.32
2022-12-15T18:19:47.239Z,62.15
2022-12-15T18:22:21.991Z,61.08
2022-12-15T18:24:51.038Z,56.97
2022-12-15T18:27:21.976Z,53.53
2022-12-15T18:29:49.317Z,51.75
2022-12-15T18:32:17.542Z,53.97
2022-12-15T18:34:44.811Z,44.92
2022-12-15T18:37:19.654Z,45.38
2022-12-15T18:39:47.364Z,38.70
2022-12-15T18:42:20.764Z,36.35
2022-12-15T18:44:52.892Z,28.80
2022-12-15T18:47:22.645Z,24.80
2022-12-15T18:49:49.803Z,26.38
2022-12-15T18:52:17.838Z,36.22
2022-12-15T18:54:45.983Z,36.28
2022-12-15T18:57:34.913Z,28.90
2022-12-15T19:00:09.905Z,22.23
2022-12-15T19:02:36.979Z,20.60
2022-12-15T19:05:04.320Z,25.10
2022-12-15T19:07:31.303Z,19.98
2022-12-15T19:09:58.723Z,25.90
2022-12-15T19:12:25.658Z,21.88
2022-12-15T19:14:53.027Z,22.23
2022-12-15T19:17:42.733Z,15.05
2022-12-15T19:20:38.767Z,18.65
2022-12-15T19:23:06.713Z,22.38
2022-12-15T19:25:34.421Z,14.52
2022-12-15T19:28:03.879Z,21.48
2022-12-15T19:30:37.059Z,22.35
2022-12-15T19:33:07.790Z,34.92
2022-12-15T19:35:35.800Z,51.63
2022-12-15T19:38:04.276Z,38.50
2022-12-15T19:40:33.683Z,44.80
2022-12-15T19:43:02.315Z,72.65
2022-12-15T19:45:32.341Z,164.60
2022-12-15T19:47:59.975Z,395.08
2022-12-15T19:50:30.722Z,611.03
2022-12-15T19:53:00.574Z,497.95
2022-12-15T19:55:34.532Z,613.63
2022-12-15T19:58:26.754Z,502.63
2022-12-15T20:00:57.405Z,404.20
2022-12-15T20:03:25.080Z,225.48
2022-12-15T20:05:54.038Z,224.73
2022-12-15T20:08:25.217Z,161.18
2022-12-15T20:10:53.921Z,246.48
2022-12-15T20:13:22.212Z,41.55
2022-12-15T20:15:49.388Z,40.92
2022-12-15T20:18:16.321Z,29.98
2022-12-15T20:20:46.301Z,30.17
2022-12-15T20:23:20.023Z,29.50
2022-12-15T20:28:26.763Z,30.52
2022-12-15T20:30:54.409Z,26.92
2022-12-15T20:33:21.529Z,21.58
2022-12-15T20:35:49.903Z,22.98
2022-12-15T20:38:26.400Z,23.52
2022-12-15T20:40:54.678Z,20.70
2022-12-15T20:43:23.510Z,19.15
2022-12-15T20:46:05.082Z,25.25
2022-12-15T20:48:34.494Z,32.28
2022-12-15T20:51:05.833Z,49.88
2022-12-15T20:53:36.150Z,35.15
2022-12-15T20:56:03.420Z,31.38
2022-12-15T20:58:33.233Z,42.55
2022-12-15T21:01:00.857Z,200.35
2022-12-15T21:03:34.174Z,107.97
2022-12-15T21:06:01.500Z,109.50
2022-12-15T21:08:30.962Z,40.33
2022-12-15T21:11:02.552Z,42.55
2022-12-15T21:13:33.252Z,38.38
2022-12-15T21:16:00.612Z,41.92
2022-12-15T21:21:24.313Z,85.20
2022-12-15T21:23:51.361Z,137.07
2022-12-15T21:26:21.011Z,16.90
2022-12-15T21:28:49.760Z,23.80
2022-12-15T21:31:19.017Z,29.25
2022-12-15T21:33:46.670Z,26.45
2022-12-15T21:36:15.369Z,27.75
2022-12-15T21:38:44.228Z,22.35
2022-12-15T21:41:20.442Z,26.25
2022-12-15T21:43:47.867Z,18.70
2022-12-15T21:46:28.777Z,28.90
2022-12-15T21:49:15.318Z,26.55
2022-12-15T21:51:51.909Z,25.00
2022-12-15T21:54:30.460Z,20.42
2022-12-15T21:57:00.963Z,19.17
2022-12-15T21:59:30.552Z,20.50
2022-12-15T22:01:59.280Z,18.50
2022-12-15T22:04:33.635Z,16.15
2022-12-15T22:07:01.763Z,15.27
2022-12-15T22:09:29.176Z,12.48
2022-12-15T22:11:57.443Z,17.23
2022-12-15T22:14:33.966Z,19.05
2022-12-15T22:17:10.049Z,22.40
2022-12-15T22:19:37.034Z,16.05
2022-12-15T22:22:03.986Z,10.65
2022-12-15T22:24:31.039Z,8.50
2022-12-15T22:26:58.465Z,9.45
2022-12-15T22:29:25.955Z,9.85
2022-12-15T22:31:52.975Z,8.88
2022-12-15T22:34:24.086Z,9.13
2022-12-15T22:36:51.889Z,11.82
2022-12-15T22:39:19.823Z,11.98
2022-12-15T22:41:50.383Z,7.30
2022-12-15T22:44:19.446Z,7.57
2022-12-15T22:46:48.173Z,10.80
2022-12-15T22:49:18.591Z,10.73
2022-12-15T22:51:46.077Z,9.55
2022-12-15T22:54:20.873Z,9.20
2022-12-15T22:56:52.282Z,12.70
2022-12-15T22:59:35.272Z,9.65
2022-12-15T23:02:03.130Z,12.10
2022-12-15T23:04:31.685Z,13.18
2022-12-15T23:06:59.957Z,13.57
2022-12-15T23:09:26.922Z,13.57
2022-12-15T23:11:54.046Z,12.00
2022-12-15T23:14:41.078Z,11.93
2022-12-15T23:17:08.614Z,11.73
2022-12-15T23:19:35.741Z,12.60
2022-12-15T23:22:02.661Z,13.93
2022-12-15T23:24:31.216Z,18.10
2022-12-15T23:26:58.299Z,13.50
2022-12-15T23:29:25.266Z,8.07
2022-12-15T23:31:52.151Z,14.05
2022-12-15T23:34:19.106Z,13.85
2022-12-15T23:36:46.258Z,16.98
2022-12-15T23:39:13.332Z,20.75
2022-12-15T23:41:40.630Z,20.30
2022-12-15T23:44:08.317Z,22.63
2022-12-15T23:46:35.579Z,17.95
2022-12-15T23:49:02.658Z,18.83
2022-12-15T23:51:29.661Z,18.35
2022-12-15T23:53:56.598Z,18.38
2022-12-15T23:56:24.470Z,16.65
2022-12-15T23:58:57.016Z,15.00
